Tiempo atmosférico en la estación meteorológica de Morales del Toro, Zamora (710 m.)



Fecha
DESCASC
Temp. máxima en grados centígrados (hora)
DESCASC
Temp. mínima en grados centígrados (hora)
DESCASC
Temp. media en grados centígrados
DESCASC
Racha de viento máxima en m/sg (hora)
DESCASC
Velocidad máxima media en intervalos de 10 minutos(hora)
DESCASC
Precipitaciones diarias en mm
DESCASC
Precipitaciones de 00:00 a 06:00 en mm
DESCASC
Precipitaciones de 06:00 a 12:00 en mm
DESCASC
Precipitaciones de 12:00 a 18:00 en mm
DESCASC
Precipitaciones de 18:00 a 24:00 en mm
DESCASC
17-09-2020 29 (17:10) 16.2 (23:59) 22.6 13.89 (23:40) 8.33 (18:10) 1.2 0.2 0 0 1
15-09-2020 28.9 (17:00) 14.2 (07:40) 21.5 8.33 (17:10) 5.28 (17:50) 0.2 0.2 0 0 0
14-09-2020 30.4 (16:10) 17.9 (08:00) 24.1 19.17 (19:10) 10.56 (19:10) 7 0 0 0 7
13-09-2020 35.8 (17:50) 13.1 (00:00) 24.4 8.06 (00:50) 5.83 (03:50) 0 0 0 0 0
12-09-2020 33.6 (17:20) 12.6 (07:30) 23.1 9.72 (14:10) 5.28 (22:20) 0 0 0 0 0
11-09-2020 32.2 (17:10) 11.7 (00:00) 22 6.11 (00:30) 4.44 (04:50) 0 0 0 0 0
10-09-2020 30.6 (18:00) 11.7 (00:00) 21.2 15.56 (15:20) 4.17 (02:00) 0 0 0 0 0
09-09-2020 30.5 (17:20) 9.1 (08:10) 19.8 6.11 (17:50) 4.72 (23:30) 0 0 0 0 0
08-09-2020 28.7 (17:50) 9.5 (00:00) 19.1 13.89 (01:10) 10 (01:10) 0 0 0 0 0
07-09-2020 24.7 (16:50) 8.6 (07:50) 16.7 12.5 (12:00) 8.89 (11:20) 0 0 0 0 0
06-09-2020 29.4 (16:30) 12.8 (00:00) 21.1 14.17 (22:30) 10 (22:50) 0 0 0 0 0
05-09-2020 34.8 (16:20) 13.1 (00:00) 23.9 12.5 (22:30) 9.44 (22:30) 0 0 0 0 0
04-09-2020 35.4 (17:30) 10.7 (00:00) 23.1 7.5 (18:00) 3.89 (00:10) 0 0 0 0 0
03-09-2020 32.3 (18:00) 11.1 (00:00) 21.7 5.28 (07:40) 4.17 (08:00) 0 0 0 0 0
02-09-2020 29.4 (18:10) 10.1 (00:00) 19.8 12.22 (00:40) 9.17 (00:40) 0 0 0 0 0
01-09-2020 29.2 (18:00) 12.6 (00:00) 20.9 11.94 (23:59) 8.61 (23:50) 0 0 0 0 0
31-08-2020 25.7 (19:00) 5.9 (00:00) 15.8 8.89 (00:20) 6.11 (00:30) 0 0 0 0 0
30-08-2020 22.7 (16:50) 5.2 (00:00) 14 9.17 (23:00) 6.11 (23:00) 0 0 0 0 0
29-08-2020 22.3 (16:30) 8.2 (00:00) 15.2 13.06 (17:10) 8.33 (16:50) 0 0 0 0 0
28-08-2020 28.4 (17:50) 15.5 (00:00) 21.9 11.94 (18:40) 8.61 (20:20) 0 0 0 0 0
27-08-2020 34.6 (18:00) 15.2 (00:00) 24.9 12.22 (18:10) 5.83 (19:10) 0 0 0 0 0
26-08-2020 34.7 (19:40) 13.6 (00:00) 24.2 7.5 (17:50) 4.44 (17:20) 0 0 0 0 0
25-08-2020 35.1 (17:30) 11.8 (00:00) 23.4 8.61 (17:10) 5.56 (20:20) 0 0 0 0 0
24-08-2020 32 (19:30) 12.2 (07:00) 22.1 8.61 (01:00) 6.11 (08:00) 0 0 0 0 0
23-08-2020 30.9 (17:50) 11.7 (00:00) 21.3 6.39 (03:50) 5.28 (03:50) 0 0 0 0 0
22-08-2020 29.8 (18:30) 10.6 (00:00) 20.2 6.39 (17:50) 3.61 (23:59) 0 0 0 0 0
21-08-2020 26.4 (18:20) 16.4 (23:59) 21.4 11.11 (17:50) 8.61 (18:30) 2.6 2.4 0.2 0 0

Gráficas

Temp. máximas Temp. mínimas Temp. medias Precipitaciones Rachas de viento máximas Velocidades máximas media en intervalos de 10 minutos

Datos horarios

Fecha y hora oficial Temperatura (ºC) Velocidad del viento (km/h) Dirección del viento Racha (km/h) Dirección de racha Precipitación (mm) Presión (hPa) Tendencia (hPa) Humedad (%)
2020-09-19 23:00:00 15.3 10 Sudoeste 17 Sudoeste 0 -- -- 90
2020-09-19 22:00:00 15.2 12 Sudoeste 21 Sudoeste 0.2 -- -- 90
2020-09-19 21:00:00 16.1 16 Sudoeste 31 Sudoeste 0 -- -- 83
2020-09-19 20:00:00 17.2 23 Sudoeste 40 Sudoeste 0 -- -- 72
2020-09-19 19:00:00 19.9 29 Sudoeste 50 Sudoeste 0 -- -- 60
2020-09-19 18:00:00 20.8 32 Sudoeste 46 Sudoeste 0 -- -- 54
2020-09-19 17:00:00 20.1 22 Sudoeste 35 Sudoeste 0 -- -- 63
2020-09-19 16:00:00 18.1 19 Oeste 32 Oeste 1.4 -- -- 82
2020-09-19 15:00:00 18.1 26 Oeste 40 Oeste 0.2 -- -- 80
2020-09-19 14:00:00 15.7 24 Oeste 35 Oeste 0.6 -- -- 90
2020-09-19 13:00:00 16.6 24 Oeste 32 Sudoeste 0.2 -- -- 85
2020-09-19 12:00:00 15.5 17 Oeste 28 Oeste 0 -- -- 90
2020-09-19 11:00:00 14.8 16 Oeste 30 Noroeste 0.4 -- -- 96
2020-09-19 10:00:00 14.5 24 Oeste 43 Sudoeste 0.4 -- -- 96
2020-09-19 09:00:00 14.5 33 Sudoeste 56 Sudoeste 0.2 -- -- 94
2020-09-19 08:00:00 14.2 31 Sudoeste 48 Sudoeste 3.4 -- -- 97
2020-09-19 07:00:00 13.4 27 Este 37 Este 5.6 -- -- 97
2020-09-19 06:00:00 13.7 14 Este 21 Este 3.8 -- -- 96
2020-09-19 05:00:00 13.9 9 Este 21 Este 0.4 -- -- 94
2020-09-19 04:00:00 13.9 14 Este 22 Este 0 -- -- 93
2020-09-19 03:00:00 13.9 13 Este 20 Este 0 -- -- 93
2020-09-19 02:00:00 13.8 13 Este 18 Este 0.2 -- -- 93
2020-09-19 01:00:00 14.2 10 Sudeste 24 Este 0.2 -- -- 90
2020-09-19 00:00:00 14 17 Este 27 Este 0 -- -- 87
2020-09-18 23:00:00 14.3 17 Este 25 Este 0 -- -- 83
2020-09-18 22:00:00 14.5 10 Sudeste 21 Sudeste 0 -- -- 85
2020-09-18 21:00:00 14.6 8 Sudeste 19 Sudeste 0 -- -- 85
2020-09-18 20:00:00 15.5 4 Sudeste 20 Sur 0 -- -- 86
2020-09-18 19:00:00 14.9 15 Sur 38 Sur 2 -- -- 90
2020-09-18 18:00:00 23.1 10 Este 17 Sur 0 -- -- 43
2020-09-18 17:00:00 22.3 10 Sur 19 Sur 0 -- -- 48
2020-09-18 16:00:00 23 15 Sudoeste 33 Sudoeste 0 -- -- 46
2020-09-18 15:00:00 23.1 21 Sudoeste 32 Sudoeste 0 -- -- 48
2020-09-18 14:00:00 22.8 15 Sur 28 Sur 0 -- -- 47
2020-09-18 13:00:00 20.1 17 Sur 29 Sur 0 -- -- 57
2020-09-18 12:00:00 19.6 14 Sur 27 Sudeste 0 -- -- 67
2020-09-18 11:00:00 17.1 15 Sudeste 22 Sudeste 0 -- -- 84
2020-09-18 10:00:00 15.2 13 Sudeste 22 Sudeste 0 -- -- 90
2020-09-18 09:00:00 14 15 Sudeste 28 Sudeste 0 -- -- 97
2020-09-18 08:00:00 13.4 7 Nordeste 23 Sudeste 9.4 -- -- 97
2020-09-18 07:00:00 15.4 6 Sur 19 Este 2.4 -- -- 96
2020-09-18 06:00:00 15.4 14 Este 21 Este 3.2 -- -- 96
2020-09-18 05:00:00 15.5 13 Este 22 Este 0.8 -- -- 93
2020-09-18 04:00:00 15.7 9 Nordeste 19 Este 0 -- -- 92
2020-09-18 03:00:00 15.9 7 Este 16 Este 0 -- -- 91
2020-09-18 02:00:00 15.7 9 Este 13 Este 0 -- -- 90
2020-09-18 01:00:00 15.8 4 Sudeste 25 Oeste 0.2 -- -- 87
2020-09-18 00:00:00 16.2 10 Sur 50 Sur 1 -- -- 85
2020-09-17 23:00:00 21.3 16 Sudoeste 30 Sur 0 -- -- 54
2020-09-17 22:00:00 22.6 15 Sudeste 26 Este 0 -- -- 57
2020-09-17 21:00:00 23.2 18 Sudeste 36 Sur 0 -- -- 54
2020-09-17 20:00:00 24.4 14 Sudeste 36 Sudeste 0 -- -- 48
2020-09-17 19:00:00 25.8 22 Sudeste 43 Sudeste 0 -- -- 45
2020-09-17 18:00:00 27.7 23 Sudeste 41 Sudeste 0 -- -- 39
2020-09-17 17:00:00 28.6 17 Sudeste 35 Sudeste 0 -- -- 36
2020-09-17 16:00:00 27.5 20 Sudeste 49 Sudeste 0 -- -- 38
2020-09-17 15:00:00 28 16 Sudeste 34 Sudeste 0 -- -- 38
2020-09-17 14:00:00 26 15 Sudeste 28 Sudeste 0 -- -- 43
2020-09-17 13:00:00 25.4 15 Sudeste 34 Este 0 -- -- 47
2020-09-17 12:00:00 22.8 20 Sudeste 32 Sudeste 0 -- -- 57
2020-09-17 11:00:00 20.7 21 Sudeste 30 Sudeste 0 -- -- 65
2020-09-17 10:00:00 19.1 14 Sudeste 26 Sudeste 0 -- -- 72
2020-09-17 09:00:00 18 21 Este 30 Este 0 -- -- 77
2020-09-17 08:00:00 17.8 18 Este 28 Este 0 -- -- 77
2020-09-17 07:00:00 18.1 20 Este 30 Este 0 -- -- 75
2020-09-17 06:00:00 17.7 20 Este 38 Este 0 -- -- 77
2020-09-17 05:00:00 18.1 12 Este 18 Este 0.2 -- -- 74
2020-09-17 04:00:00 20 6 Este 29 Este 0 -- -- 59
2020-09-17 03:00:00 20.8 23 Este 33 Este 0 -- -- 51
2020-09-17 02:00:00 22.3 16 Sudeste 40 Este 0 -- -- 45
2020-09-17 01:00:00 22.2 13 Sudeste 35 Sudeste 0 -- -- 44
2020-09-17 00:00:00 21.7 9 Este 30 Sudeste 0 -- -- 45
2020-09-16 23:00:00 23.2 4 Nordeste 15 Este 0 -- -- 41
2020-09-16 22:00:00 23.8 9 Este 16 Nordeste 0 -- -- 39
2020-09-16 21:00:00 22.6 9 Nordeste 14 Nordeste 0 -- -- 49
2020-09-16 20:00:00 26.4 8 Este 15 Este 0 -- -- 37
2020-09-16 19:00:00 28.5 2 Sur 24 Nordeste 0 -- -- 31
2020-09-16 18:00:00 30.5 10 Este 23 Este 0 -- -- 28
2020-09-16 17:00:00 29.8 7 Nordeste 25 Este 0 -- -- 31
2020-09-16 16:00:00 29.2 13 Este 27 Este 0 -- -- 32
2020-09-16 15:00:00 29.3 10 Este 24 Este 0 -- -- 34
2020-09-16 14:00:00 28.2 9 Este 36 Este 0 -- -- 36
2020-09-16 13:00:00 26.5 8 Sudeste 14 Este 0 -- -- 40
2020-09-16 12:00:00 23.9 3 Este 8 Oeste 0 -- -- 48
2020-09-16 11:00:00 20.6 3 Este 12 Este 0 -- -- 58
2020-09-16 10:00:00 16.9 7 Este 15 Este 0 -- -- 72
2020-09-16 09:00:00 13.9 12 Este 17 Este 0 -- -- 84
2020-09-16 08:00:00 12.2 8 Este 14 Este 0 -- -- 84
2020-09-16 07:00:00 12 0 Calma 10 Nordeste 0 -- -- 85
2020-09-16 06:00:00 11.9 10 Nordeste 12 Nordeste 0 -- -- 85
2020-09-16 05:00:00 12.1 9 Nordeste 11 Norte 0 -- -- 86
2020-09-16 04:00:00 13.7 5 Nordeste 8 Nordeste 0 -- -- 81
2020-09-16 03:00:00 14.9 5 Norte 13 Nordeste 0 -- -- 75
2020-09-16 02:00:00 15.3 10 Norte 12 Norte 0 -- -- 72
2020-09-16 01:00:00 16 9 Nordeste 12 Norte 0 -- -- 72
2020-09-16 00:00:00 18.8 2 Oeste 8 Oeste 0 -- -- 59
2020-09-15 23:00:00 19.4 6 Oeste 9 Oeste 0 -- -- 58
2020-09-15 22:00:00 20.5 4 Oeste 8 Oeste 0 -- -- 54
2020-09-15 21:00:00 21.8 6 Sudoeste 13 Sudoeste 0 -- -- 53
2020-09-15 20:00:00 25.1 8 Sudoeste 20 Sur 0 -- -- 41
2020-09-15 19:00:00 27.7 13 Sudoeste 25 Sudoeste 0 -- -- 32
2020-09-15 18:00:00 28.5 18 Sudoeste 30 Sudoeste 0 -- -- 32
2020-09-15 17:00:00 28.9 14 Sudoeste 29 Sudoeste 0 -- -- 33
2020-09-15 16:00:00 27.9 17 Sur 27 Sur 0 -- -- 38
2020-09-15 15:00:00 27.3 15 Sudoeste 29 Sudoeste 0 -- -- 41
2020-09-15 14:00:00 26.4 12 Sur 28 Sur 0 -- -- 46
2020-09-15 13:00:00 24.4 8 Sudoeste 14 Sudoeste 0 -- -- 59
2020-09-15 12:00:00 21.8 6 Sudeste 14 Este 0 -- -- 69
2020-09-15 11:00:00 19.2 6 Sudeste 13 Este 0 -- -- 80
2020-09-15 10:00:00 17.2 8 Este 13 Sudeste 0 -- -- 87
2020-09-15 09:00:00 15.1 6 Este 12 Este 0 -- -- 92
2020-09-15 08:00:00 14.2 6 Este 12 Este 0 -- -- 92
2020-09-15 07:00:00 14.4 6 Este 12 Este 0 -- -- 93
2020-09-15 06:00:00 14.6 5 Este 12 Este 0 -- -- 92
2020-09-15 05:00:00 15.2 6 Este 11 Este 0 -- -- 89
2020-09-15 04:00:00 15.9 7 Sur 9 Sur 0 -- -- 88
2020-09-15 03:00:00 16.5 0 Calma 10 Norte 0 -- -- 88
2020-09-15 02:00:00 17.5 4 Sur 17 Sur 0.2 -- -- 82
2020-09-15 01:00:00 18.8 6 Sudeste 13 Este 0 -- -- 82
2020-09-15 00:00:00 18.3 10 Nordeste 32 Sur 2.8 -- -- 86
2020-09-14 23:00:00 19 6 Nordeste 13 Norte 0 -- -- 78
2020-09-14 22:00:00 19.8 9 Norte 13 Este 0 -- -- 71
2020-09-14 21:00:00 20.8 12 Oeste 62 Oeste 2.8 -- -- 63
2020-09-14 20:00:00 21.9 5 Norte 69 Sudoeste 0.8 -- -- 70
2020-09-14 19:00:00 23.1 11 Oeste 39 Oeste 0.6 -- -- 67
2020-09-14 18:00:00 29 5 Sur 16 Sudoeste 0 -- -- 34
2020-09-14 17:00:00 29.5 8 Sudoeste 23 Sur 0 -- -- 33
2020-09-14 16:00:00 29.9 8 Sudoeste 22 Sur 0 -- -- 32
2020-09-14 15:00:00 29.4 10 Sudoeste 20 Sudoeste 0 -- -- 34
2020-09-14 14:00:00 28.3 4 Este 14 Sur 0 -- -- 37
2020-09-14 13:00:00 25.4 9 Sudoeste 18 Sur 0 -- -- 43
2020-09-14 12:00:00 24.6 8 Sudeste 17 Sur 0 -- -- 45
2020-09-14 11:00:00 23.7 9 Sur 19 Sur 0 -- -- 46
2020-09-14 10:00:00 22.2 7 Sudeste 15 Este 0 -- -- 50
2020-09-14 09:00:00 19.9 4 Sudeste 11 Sudeste 0 -- -- 54
2020-09-14 08:00:00 17.9 8 Sudeste 17 Este 0 -- -- 58
2020-09-14 07:00:00 18.4 8 Este 12 Este 0 -- -- 55
2020-09-14 06:00:00 19.2 10 Este 15 Este 0 -- -- 52
2020-09-14 05:00:00 19.4 9 Este 13 Este 0 -- -- 50
2020-09-14 04:00:00 20.7 11 Este 18 Este 0 -- -- 45
2020-09-14 03:00:00 21.2 11 Este 17 Este 0 -- -- 42
2020-09-14 02:00:00 21.7 9 Este 15 Este 0 -- -- 40
2020-09-14 01:00:00 21.6 12 Este 15 Este 0 -- -- 42
2020-09-14 00:00:00 22.6 8 Sudeste 17 Sudeste 0 -- -- 40
2020-09-13 23:00:00 24.6 13 Sudeste 22 Oeste 0 -- -- 37
2020-09-13 22:00:00 26.3 13 Este 25 Sudeste 0 -- -- 34
2020-09-13 21:00:00 27.3 9 Sudeste 14 Sudeste 0 -- -- 32
2020-09-13 20:00:00 30.2 13 Sudeste 19 Sudeste 0 -- -- 26
2020-09-13 19:00:00 34.5 0 Calma 10 Este 0 -- -- 22
2020-09-13 18:00:00 35 5 Este 18 Este 0 -- -- 21
2020-09-13 17:00:00 34.5 5 Sudoeste 13 Sur 0 -- -- 22
2020-09-13 16:00:00 33.2 4 Sur 11 Sur 0 -- -- 23
2020-09-13 15:00:00 31.3 5 Oeste 10 Sur 0 -- -- 27
2020-09-13 14:00:00 28.5 5 Sudoeste 8 Sudoeste 0 -- -- 32
2020-09-13 13:00:00 27.6 5 Sur 13 Sur 0 -- -- 33
2020-09-13 12:00:00 26.1 4 Este 16 Sur 0 -- -- 37
2020-09-13 11:00:00 22.5 4 Sur 9 Sudeste 0 -- -- 42
2020-09-13 10:00:00 18.7 3 Sudoeste 6 Nordeste 0 -- -- 47
2020-09-13 09:00:00 15.2 4 Nordeste 13 Norte 0 -- -- 56
2020-09-13 08:00:00 13.8 9 Norte 14 Norte 0 -- -- 60
2020-09-13 07:00:00 14.1 7 Nordeste 9 Norte 0 -- -- 59
2020-09-13 06:00:00 15.4 3 Nordeste 12 Norte 0 -- -- 55
2020-09-13 05:00:00 17.5 10 Nordeste 26 Nordeste 0 -- -- 48
2020-09-13 04:00:00 18.8 20 Nordeste 26 Nordeste 0 -- -- 42
2020-09-13 03:00:00 18.2 13 Norte 21 Nordeste 0 -- -- 42
2020-09-13 02:00:00 18.8 14 Nordeste 27 Este 0 -- -- 40
2020-09-13 01:00:00 20 13 Nordeste 29 Este 0 -- -- 35
2020-09-13 00:00:00 20.8 12 Este 23 Nordeste 0 -- -- 32
2020-09-12 23:00:00 18.4 15 Nordeste 30 Nordeste 0 -- -- 35
2020-09-12 22:00:00 20.6 16 Nordeste 19 Norte 0 -- -- 33
2020-09-12 21:00:00 24.1 12 Nordeste 17 Norte 0 -- -- 28
2020-09-12 20:00:00 28.9 9 Norte 16 Norte 0 -- -- 22
2020-09-12 19:00:00 31.8 8 Norte 19 Nordeste 0 -- -- 20
2020-09-12 18:00:00 32.8 7 Noroeste 18 Este 0 -- -- 20
2020-09-12 17:00:00 32.4 12 Nordeste 22 Norte 0 -- -- 21
2020-09-12 16:00:00 32.4 11 Este 34 Nordeste 0 -- -- 23
2020-09-12 15:00:00 31.6 17 Nordeste 35 Este 0 -- -- 24
2020-09-12 14:00:00 31 12 Este 27 Este 0 -- -- 26
2020-09-12 13:00:00 28.3 10 Este 21 Este 0 -- -- 31
2020-09-12 12:00:00 25.3 8 Este 17 Este 0 -- -- 39
2020-09-12 11:00:00 21.5 6 Este 16 Este 0 -- -- 49
2020-09-12 10:00:00 17.7 6 Nordeste 17 Norte 0 -- -- 58
2020-09-12 09:00:00 14.4 10 Norte 16 Norte 0 -- -- 66
2020-09-12 08:00:00 13 11 Norte 14 Nordeste 0 -- -- 70
2020-09-12 07:00:00 13.1 13 Norte 15 Norte 0 -- -- 68
2020-09-12 06:00:00 12.8 7 Norte 13 Noroeste 0 -- -- 65
2020-09-12 05:00:00 14.1 3 Norte 12 Norte 0 -- -- 59
2020-09-12 04:00:00 15.1 8 Nordeste 12 Norte 0 -- -- 58
2020-09-12 03:00:00 16.8 5 Nordeste 9 Nordeste 0 -- -- 50
2020-09-12 02:00:00 18.7 5 Nordeste 24 Este 0 -- -- 42
2020-09-12 01:00:00 20.8 19 Este 26 Este 0 -- -- 36
2020-09-12 00:00:00 17.3 10 Nordeste 15 Nordeste 0 -- -- 49
2020-09-11 23:00:00 18.1 10 Nordeste 15 Norte 0 -- -- 47
2020-09-11 22:00:00 21.5 12 Norte 14 Norte 0 -- -- 40
2020-09-11 21:00:00 23.8 10 Nordeste 14 Norte 0 -- -- 36
2020-09-11 20:00:00 27.6 9 Norte 16 Nordeste 0 -- -- 29
2020-09-11 19:00:00 29.3 11 Norte 22 Norte 0 -- -- 27
2020-09-11 18:00:00 31.8 6 Noroeste 21 Norte 0 -- -- 25
2020-09-11 17:00:00 30.6 6 Norte 18 Nordeste 0 -- -- 26
2020-09-11 16:00:00 31.3 7 Sudeste 18 Nordeste 0 -- -- 26
2020-09-11 15:00:00 29.8 6 Noroeste 17 Sudoeste 0 -- -- 28
2020-09-11 14:00:00 28.7 5 Norte 14 Este 0 -- -- 30
2020-09-11 13:00:00 27.6 5 Nordeste 15 Norte 0 -- -- 32
2020-09-11 12:00:00 24.4 6 Norte 13 Nordeste 0 -- -- 43
2020-09-11 11:00:00 21.4 6 Norte 13 Nordeste 0 -- -- 52
2020-09-11 10:00:00 18 8 Nordeste 11 Nordeste 0 -- -- 62
2020-09-11 09:00:00 14.1 4 Nordeste 8 Norte 0 -- -- 71
2020-09-11 08:00:00 11.7 5 Norte 8 Nordeste 0 -- -- 75
2020-09-11 07:00:00 13.5 5 Norte 7 Noroeste 0 -- -- 68
2020-09-11 06:00:00 15.6 11 Nordeste 21 Nordeste 0 -- -- 63
2020-09-11 05:00:00 14.8 14 Nordeste 19 Nordeste 0 -- -- 66
2020-09-11 04:00:00 16.1 14 Nordeste 21 Nordeste 0 -- -- 61
2020-09-11 03:00:00 16.4 13 Nordeste 18 Norte 0 -- -- 57
2020-09-11 02:00:00 15.5 13 Nordeste 17 Nordeste 0 -- -- 56
2020-09-11 01:00:00 15.2 15 Nordeste 22 Norte 0 -- -- 53
2020-09-11 00:00:00 17 13 Norte 16 Norte 0 -- -- 47
2020-09-10 23:00:00 18.1 12 Norte 14 Norte 0 -- -- 44
2020-09-10 22:00:00 20.4 10 Norte 12 Norte 0 -- -- 41
2020-09-10 21:00:00 23.8 7 Nordeste 10 Nordeste 0 -- -- 33
2020-09-10 20:00:00 28.4 6 Norte 14 Noroeste 0 -- -- 26
2020-09-10 19:00:00 29.5 9 Norte 22 Norte 0 -- -- 25
2020-09-10 18:00:00 30.6 8 Norte 26 Noroeste 0 -- -- 25
2020-09-10 17:00:00 30 9 Noroeste 21 Noroeste 0 -- -- 26
2020-09-10 16:00:00 29.7 8 Nordeste 56 Este 0 -- -- 29
2020-09-10 15:00:00 28.5 8 Norte 21 Noroeste 0 -- -- 32
2020-09-10 14:00:00 27.7 8 Oeste 20 Oeste 0 -- -- 35
2020-09-10 13:00:00 25.8 6 Este 13 Nordeste 0 -- -- 39
2020-09-10 12:00:00 24 7 Este 14 Este 0 -- -- 42
2020-09-10 11:00:00 20.5 5 Nordeste 13 Nordeste 0 -- -- 52
2020-09-10 10:00:00 17.2 8 Nordeste 13 Norte 0 -- -- 63
2020-09-10 09:00:00 13.4 10 Norte 14 Norte 0 -- -- 76
2020-09-10 08:00:00 11.9 10 Norte 13 Norte 0 -- -- 79
2020-09-10 07:00:00 12.4 6 Norte 12 Noroeste 0 -- -- 77
2020-09-10 06:00:00 14 6 Nordeste 16 Nordeste 0 -- -- 72
2020-09-10 05:00:00 15.3 8 Nordeste 16 Nordeste 0 -- -- 69
2020-09-10 04:00:00 16.5 9 Nordeste 22 Este 0 -- -- 65
2020-09-10 03:00:00 17.4 6 Nordeste 21 Nordeste 0 -- -- 58
2020-09-10 02:00:00 17.9 15 Nordeste 23 Nordeste 0 -- -- 53
2020-09-10 01:00:00 17.4 11 Nordeste 17 Nordeste 0 -- -- 53
2020-09-10 00:00:00 16.1 15 Nordeste 21 Nordeste 0 -- -- 48
2020-09-09 23:00:00 17.4 13 Norte 15 Norte 0 -- -- 40
2020-09-09 22:00:00 19.8 12 Norte 14 Norte 0 -- -- 35
2020-09-09 21:00:00 23 8 Norte 14 Norte 0 -- -- 29
2020-09-09 20:00:00 27.9 9 Norte 19 Norte 0 -- -- 24
2020-09-09 19:00:00 29.5 6 Noroeste 20 Noroeste 0 -- -- 23
2020-09-09 18:00:00 29.3 10 Norte 22 Noroeste 0 -- -- 25
2020-09-09 17:00:00 30.3 8 Norte 20 Nordeste 0 -- -- 25
2020-09-09 16:00:00 30.4 6 Este 16 Nordeste 0 -- -- 24
2020-09-09 15:00:00 28.3 9 Norte 18 Sur 0 -- -- 25
2020-09-09 14:00:00 27.5 5 Oeste 13 Noroeste 0 -- -- 26
2020-09-09 13:00:00 24.6 5 Oeste 12 Sudoeste 0 -- -- 32
2020-09-09 12:00:00 22.4 6 Oeste 9 Oeste 0 -- -- 37
2020-09-09 11:00:00 18.5 4 Sudoeste 8 Sudoeste 0 -- -- 42
2020-09-09 10:00:00 15.7 2 Sudoeste 5 Oeste 0 -- -- 47
2020-09-09 09:00:00 12 0 Calma 5 Norte 0 -- -- 52
2020-09-09 08:00:00 9.5 4 Norte 8 Norte 0 -- -- 59
2020-09-09 07:00:00 10.3 4 Norte 13 Oeste 0 -- -- 56
2020-09-09 06:00:00 10.5 4 Oeste 6 Oeste 0 -- -- 58
2020-09-09 05:00:00 12.3 3 Nordeste 14 Este 0 -- -- 50
2020-09-09 04:00:00 13.4 8 Nordeste 16 Este 0 -- -- 49
2020-09-09 03:00:00 12.3 9 Nordeste 15 Nordeste 0 -- -- 53
2020-09-09 02:00:00 13.8 10 Norte 17 Nordeste 0 -- -- 49
2020-09-09 01:00:00 13 12 Nordeste 21 Norte 0 -- -- 48
2020-09-09 00:00:00 14.4 17 Nordeste 21 Norte 0 -- -- 40
2020-09-08 23:00:00 15.9 13 Norte 15 Norte 0 -- -- 35
2020-09-08 22:00:00 18 10 Norte 13 Norte 0 -- -- 34
2020-09-08 21:00:00 22.2 4 Norte 12 Nordeste 0 -- -- 28
2020-09-08 20:00:00 28.6 4 Este 14 Este 0 -- -- 20
2020-09-08 19:00:00 28 8 Este 23 Este 0 -- -- 21
2020-09-08 18:00:00 28.7 12 Este 24 Este 0 -- -- 20
2020-09-08 17:00:00 27.8 12 Este 27 Este 0 -- -- 21
2020-09-08 16:00:00 26.5 11 Nordeste 32 Este 0 -- -- 23
2020-09-08 15:00:00 25.2 17 Este 32 Este 0 -- -- 26
2020-09-08 14:00:00 24.3 13 Este 31 Este 0 -- -- 28
2020-09-08 13:00:00 20.7 17 Nordeste 31 Este 0 -- -- 38
2020-09-08 12:00:00 19.1 22 Nordeste 34 Nordeste 0 -- -- 43
2020-09-08 11:00:00 16.9 24 Nordeste 32 Nordeste 0 -- -- 52
2020-09-08 10:00:00 14.2 23 Nordeste 35 Nordeste 0 -- -- 66
2020-09-08 09:00:00 11.3 24 Nordeste 31 Nordeste 0 -- -- 79
2020-09-08 08:00:00 9.5 22 Nordeste 31 Nordeste 0 -- -- 83
2020-09-08 07:00:00 9.8 10 Este 24 Nordeste 0 -- -- 81
2020-09-08 06:00:00 10.3 23 Nordeste 38 Nordeste 0 -- -- 77
2020-09-08 05:00:00 10.6 15 Nordeste 38 Nordeste 0 -- -- 75
2020-09-08 04:00:00 10.9 22 Nordeste 32 Nordeste 0 -- -- 72
2020-09-08 03:00:00 11.4 18 Nordeste 30 Nordeste 0 -- -- 66
2020-09-08 02:00:00 12.1 25 Nordeste 50 Nordeste 0 -- -- 61
2020-09-08 01:00:00 13.3 35 Nordeste 49 Nordeste 0 -- -- 54
2020-09-08 00:00:00 13.8 23 Nordeste 37 Nordeste 0 -- -- 54
2020-09-07 23:00:00 14.5 17 Este 38 Nordeste 0 -- -- 53
2020-09-07 22:00:00 16.8 21 Nordeste 31 Nordeste 0 -- -- 49
2020-09-07 21:00:00 18.3 24 Nordeste 36 Nordeste 0 -- -- 45
2020-09-07 20:00:00 20.9 26 Nordeste 41 Nordeste 0 -- -- 39
2020-09-07 19:00:00 22.7 29 Nordeste 40 Nordeste 0 -- -- 34
2020-09-07 18:00:00 23.6 28 Nordeste 42 Nordeste 0 -- -- 35
2020-09-07 17:00:00 24.3 26 Nordeste 41 Nordeste 0 -- -- 34
2020-09-07 16:00:00 23.9 22 Nordeste 39 Nordeste 0 -- -- 33
2020-09-07 15:00:00 22.8 21 Nordeste 38 Nordeste 0 -- -- 37
2020-09-07 14:00:00 21.3 24 Nordeste 39 Nordeste 0 -- -- 41
2020-09-07 13:00:00 19.8 27 Nordeste 42 Este 0 -- -- 47
2020-09-07 12:00:00 18.3 32 Nordeste 45 Nordeste 0 -- -- 50
2020-09-07 11:00:00 16.6 26 Nordeste 42 Nordeste 0 -- -- 54
2020-09-07 10:00:00 13.8 24 Nordeste 34 Nordeste 0 -- -- 66
2020-09-07 09:00:00 11.3 8 Nordeste 14 Nordeste 0 -- -- 77
2020-09-07 08:00:00 8.6 7 Nordeste 10 Nordeste 0 -- -- 85
2020-09-07 07:00:00 9.1 5 Norte 9 Nordeste 0 -- -- 83
2020-09-07 06:00:00 10.4 6 Norte 17 Nordeste 0 -- -- 80
2020-09-07 05:00:00 11.8 13 Nordeste 23 Nordeste 0 -- -- 74
2020-09-07 04:00:00 12.7 18 Nordeste 27 Nordeste 0 -- -- 71
2020-09-07 03:00:00 13.1 17 Nordeste 26 Nordeste 0 -- -- 69
2020-09-07 02:00:00 13.7 19 Nordeste 30 Nordeste 0 -- -- 67
2020-09-07 01:00:00 14.3 21 Nordeste 32 Este 0 -- -- 62
2020-09-07 00:00:00 14.9 21 Nordeste 42 Nordeste 0 -- -- 60
2020-09-06 23:00:00 16.1 31 Nordeste 51 Nordeste 0 -- -- 56
2020-09-06 22:00:00 17.8 33 Nordeste 43 Nordeste 0 -- -- 52
2020-09-06 21:00:00 20.8 26 Nordeste 36 Nordeste 0 -- -- 44
2020-09-06 20:00:00 24.8 24 Nordeste 33 Nordeste 0 -- -- 38
2020-09-06 19:00:00 27.1 19 Nordeste 31 Nordeste 0 -- -- 36
2020-09-06 18:00:00 28.4 19 Nordeste 29 Nordeste 0 -- -- 34
2020-09-06 17:00:00 29.1 14 Nordeste 30 Nordeste 0 -- -- 34
2020-09-06 16:00:00 28.6 13 Nordeste 26 Nordeste 0 -- -- 35
2020-09-06 15:00:00 27.9 12 Nordeste 23 Este 0 -- -- 38
2020-09-06 14:00:00 26.9 13 Nordeste 27 Nordeste 0 -- -- 42
2020-09-06 13:00:00 24.6 9 Nordeste 24 Nordeste 0 -- -- 47
2020-09-06 12:00:00 22.5 14 Nordeste 26 Nordeste 0 -- -- 51
2020-09-06 11:00:00 19.8 16 Nordeste 25 Nordeste 0 -- -- 59
2020-09-06 10:00:00 17.5 17 Nordeste 23 Nordeste 0 -- -- 67
2020-09-06 09:00:00 15.1 6 Nordeste 16 Nordeste 0 -- -- 75
2020-09-06 08:00:00 12.8 5 Este 9 Nordeste 0 -- -- 83
2020-09-06 07:00:00 13.2 3 Norte 22 Nordeste 0 -- -- 80
2020-09-06 06:00:00 13.8 4 Nordeste 20 Nordeste 0 -- -- 80
2020-09-06 05:00:00 14.9 12 Este 24 Nordeste 0 -- -- 77
2020-09-06 04:00:00 14.7 9 Nordeste 20 Nordeste 0 -- -- 79
2020-09-06 03:00:00 15.6 8 Norte 22 Nordeste 0 -- -- 76
2020-09-06 02:00:00 16.1 7 Nordeste 32 Nordeste 0 -- -- 74
2020-09-06 01:00:00 16.9 16 Nordeste 40 Este 0 -- -- 71
2020-09-06 00:00:00 17.6 21 Nordeste 42 Este 0 -- -- 69
2020-09-05 23:00:00 18.9 28 Nordeste 45 Nordeste 0 -- -- 66
2020-09-05 22:00:00 21.3 26 Nordeste 37 Nordeste 0 -- -- 59
2020-09-05 21:00:00 23.9 27 Nordeste 37 Nordeste 0 -- -- 52
2020-09-05 20:00:00 28.2 27 Nordeste 40 Norte 0 -- -- 39
2020-09-05 19:00:00 31.5 19 Nordeste 36 Norte 0 -- -- 30
2020-09-05 18:00:00 34 6 Nordeste 22 Sudoeste 0 -- -- 25
2020-09-05 17:00:00 34.6 8 Sudeste 15 Este 0 -- -- 20
2020-09-05 16:00:00 33.7 8 Este 25 Nordeste 0 -- -- 23
2020-09-05 15:00:00 31.8 13 Norte 26 Nordeste 0 -- -- 27
2020-09-05 14:00:00 30.9 9 Nordeste 23 Nordeste 0 -- -- 30
2020-09-05 13:00:00 28.2 10 Nordeste 24 Nordeste 0 -- -- 33
2020-09-05 12:00:00 26.7 10 Nordeste 22 Este 0 -- -- 35
2020-09-05 11:00:00 23.1 15 Este 23 Nordeste 0 -- -- 43
2020-09-05 10:00:00 19.7 9 Nordeste 15 Nordeste 0 -- -- 51
2020-09-05 09:00:00 15.6 6 Norte 9 Norte 0 -- -- 58
2020-09-05 08:00:00 13.4 7 Norte 12 Nordeste 0 -- -- 64
2020-09-05 07:00:00 13.8 5 Nordeste 10 Norte 0 -- -- 59
2020-09-05 06:00:00 14.5 7 Nordeste 12 Norte 0 -- -- 52
2020-09-05 05:00:00 15.8 9 Norte 11 Norte 0 -- -- 48
2020-09-05 04:00:00 16.8 8 Norte 17 Nordeste 0 -- -- 44
2020-09-05 03:00:00 18.5 11 Noroeste 19 Noroeste 0 -- -- 40
2020-09-05 02:00:00 20.7 19 Noroeste 22 Noroeste 0 -- -- 36
2020-09-05 01:00:00 19.9 10 Noroeste 24 Oeste 0 -- -- 36
2020-09-05 00:00:00 21.9 12 Norte 16 Norte 0 -- -- 32
2020-09-04 23:00:00 22.2 9 Norte 14 Norte 0 -- -- 32
2020-09-04 22:00:00 23.2 8 Nordeste 11 Norte 0 -- -- 30
2020-09-04 21:00:00 27.7 6 Norte 8 Norte 0 -- -- 24
2020-09-04 20:00:00 32.8 5 Noroeste 22 Sur 0 -- -- 20
2020-09-04 19:00:00 33.5 13 Sur 24 Sudoeste 0 -- -- 20
2020-09-04 18:00:00 34.1 9 Sudoeste 27 Sudoeste 0 -- -- 18
2020-09-04 17:00:00 34 10 Sudoeste 20 Noroeste 0 -- -- 18
2020-09-04 16:00:00 33.4 7 Oeste 20 Oeste 0 -- -- 20
2020-09-04 15:00:00 32.3 12 Sudoeste 22 Oeste 0 -- -- 20
2020-09-04 14:00:00 31.1 7 Sudoeste 20 Oeste 0 -- -- 23
2020-09-04 13:00:00 27.1 5 Oeste 11 Oeste 0 -- -- 27
2020-09-04 12:00:00 24.9 5 Sudeste 10 Este 0 -- -- 30
2020-09-04 11:00:00 21.8 3 Este 9 Sudeste 0 -- -- 35
2020-09-04 10:00:00 18.1 2 Sudoeste 5 Sudoeste 0 -- -- 40
2020-09-04 09:00:00 13.4 2 Oeste 9 Nordeste 0 -- -- 53
2020-09-04 08:00:00 10.7 6 Nordeste 9 Nordeste 0 -- -- 61
2020-09-04 07:00:00 11.1 4 Este 6 Este 0 -- -- 58
2020-09-04 06:00:00 13.1 2 Noroeste 5 Nordeste 0 -- -- 51
2020-09-04 05:00:00 12.9 4 Sudoeste 15 Norte 0 -- -- 53
2020-09-04 04:00:00 15.2 13 Norte 16 Norte 0 -- -- 45
2020-09-04 03:00:00 15.7 9 Norte 11 Norte 0 -- -- 45
2020-09-04 02:00:00 15.8 5 Nordeste 10 Este 0 -- -- 45
2020-09-04 01:00:00 17.1 8 Nordeste 17 Norte 0 -- -- 42
2020-09-04 00:00:00 19.2 14 Norte 17 Norte 0 -- -- 38
2020-09-03 23:00:00 20.1 13 Norte 16 Norte 0 -- -- 37
2020-09-03 22:00:00 23.8 7 Norte 9 Norte 0 -- -- 27
2020-09-03 21:00:00 27.2 2 Sur 7 Sudoeste 0 -- -- 21
2020-09-03 20:00:00 31.2 5 Sur 14 Sur 0 -- -- 19
2020-09-03 19:00:00 32.1 6 Sudoeste 13 Sur 0 -- -- 19
2020-09-03 18:00:00 32.3 4 Nordeste 16 Nordeste 0 -- -- 19
2020-09-03 17:00:00 32 4 Nordeste 18 Norte 0 -- -- 18
2020-09-03 16:00:00 31.1 5 Sur 15 Sudoeste 0 -- -- 23
2020-09-03 15:00:00 29.7 6 Sudeste 15 Nordeste 0 -- -- 25
2020-09-03 14:00:00 28.4 6 Sudoeste 12 Sudoeste 0 -- -- 28
2020-09-03 13:00:00 26.9 6 Sur 13 Sudeste 0 -- -- 29
2020-09-03 12:00:00 22.9 4 Este 9 Nordeste 0 -- -- 36
2020-09-03 11:00:00 19.9 5 Este 9 Este 0 -- -- 48
2020-09-03 10:00:00 16.9 4 Este 8 Este 0 -- -- 57
2020-09-03 09:00:00 13.7 5 Este 18 Norte 0 -- -- 67
2020-09-03 08:00:00 11.3 15 Norte 19 Norte 0 -- -- 75
2020-09-03 07:00:00 11.3 14 Norte 17 Norte 0 -- -- 72
2020-09-03 06:00:00 11.2 11 Norte 14 Nordeste 0 -- -- 73
2020-09-03 05:00:00 12.4 6 Norte 8 Norte 0 -- -- 67
2020-09-03 04:00:00 13.4 8 Norte 10 Nordeste 0 -- -- 64
2020-09-03 03:00:00 13.8 8 Nordeste 15 Nordeste 0 -- -- 62
2020-09-03 02:00:00 14.1 10 Nordeste 15 Nordeste 0 -- -- 60
2020-09-03 01:00:00 14.1 10 Nordeste 14 Nordeste 0 -- -- 55
2020-09-03 00:00:00 15.5 10 Norte 14 Norte 0 -- -- 50
2020-09-02 23:00:00 16.8 12 Norte 14 Norte 0 -- -- 46
2020-09-02 22:00:00 19.6 12 Norte 14 Norte 0 -- -- 40
2020-09-02 21:00:00 22.6 8 Norte 15 Norte 0 -- -- 33
2020-09-02 20:00:00 26.9 11 Norte 20 Noroeste 0 -- -- 26
2020-09-02 19:00:00 28.3 10 Norte 19 Este 0 -- -- 26
2020-09-02 18:00:00 28.5 13 Nordeste 24 Sur 0 -- -- 26
2020-09-02 17:00:00 28.5 6 Nordeste 18 Este 0 -- -- 26
2020-09-02 16:00:00 27.4 9 Noroeste 19 Oeste 0 -- -- 28
2020-09-02 15:00:00 27.2 5 Este 19 Este 0 -- -- 29
2020-09-02 14:00:00 25.9 9 Nordeste 20 Este 0 -- -- 32
2020-09-02 13:00:00 23.3 10 Nordeste 23 Este 0 -- -- 36
2020-09-02 12:00:00 21.5 14 Este 25 Nordeste 0 -- -- 42
2020-09-02 11:00:00 19.5 14 Este 28 Nordeste 0 -- -- 48
2020-09-02 10:00:00 16.8 19 Nordeste 28 Nordeste 0 -- -- 59
2020-09-02 09:00:00 13.7 10 Norte 21 Nordeste 0 -- -- 70
2020-09-02 08:00:00 10.4 11 Nordeste 15 Nordeste 0 -- -- 80
2020-09-02 07:00:00 10.8 3 Norte 14 Nordeste 0 -- -- 77
2020-09-02 06:00:00 11.8 13 Nordeste 17 Nordeste 0 -- -- 75
2020-09-02 05:00:00 12.1 3 Sur 27 Nordeste 0 -- -- 74
2020-09-02 04:00:00 13.4 11 Nordeste 19 Nordeste 0 -- -- 71
2020-09-02 03:00:00 14.2 19 Nordeste 40 Nordeste 0 -- -- 70
2020-09-02 02:00:00 14.9 26 Nordeste 43 Nordeste 0 -- -- 69
2020-09-02 01:00:00 15.9 30 Nordeste 44 Nordeste 0 -- -- 64
2020-09-02 00:00:00 17.6 30 Nordeste 43 Nordeste 0 -- -- 56
2020-09-01 23:00:00 19.7 26 Nordeste 35 Nordeste 0 -- -- 38
2020-09-01 22:00:00 19.3 12 Norte 16 Norte 0 -- -- 35
2020-09-01 21:00:00 22.6 11 Norte 23 Noroeste 0 -- -- 28
2020-09-01 20:00:00 27.6 5 Norte 14 Oeste 0 -- -- 22
2020-09-01 19:00:00 28.6 9 Oeste 16 Sudoeste 0 -- -- 19
2020-09-01 18:00:00 29.2 6 Oeste 17 Noroeste 0 -- -- 19
2020-09-01 17:00:00 28.6 5 Oeste 19 Oeste 0 -- -- 19
2020-09-01 16:00:00 27.1 6 Sur 18 Oeste 0 -- -- 19
2020-09-01 15:00:00 26.7 5 Este 18 Oeste 0 -- -- 18
2020-09-01 14:00:00 26.4 8 Sur 17 Sudoeste 0 -- -- 20
2020-09-01 13:00:00 24.2 4 Sudeste 14 Sudeste 0 -- -- 25
2020-09-01 12:00:00 22.5 8 Sudeste 17 Este 0 -- -- 29
2020-09-01 11:00:00 19.8 9 Este 21 Este 0 -- -- 34
2020-09-01 10:00:00 16.3 6 Sudeste 11 Este 0 -- -- 42
2020-09-01 09:00:00 14.6 4 Este 16 Este 0 -- -- 47
2020-09-01 08:00:00 12.7 5 Sudeste 8 Sudeste 0 -- -- 55
2020-09-01 07:00:00 13.6 3 Sudoeste 13 Este 0 -- -- 51
2020-09-01 06:00:00 13.6 8 Nordeste 12 Nordeste 0 -- -- 51
2020-09-01 05:00:00 14.2 8 Nordeste 12 Nordeste 0 -- -- 49
2020-09-01 04:00:00 14.9 6 Nordeste 12 Este 0 -- -- 43
2020-09-01 03:00:00 14.3 2 Nordeste 4 Este 0 -- -- 43
2020-09-01 02:00:00 14.6 2 Nordeste 6 Nordeste 0 -- -- 41
2020-09-01 01:00:00 15.3 5 Nordeste 8 Este 0 -- -- 39
2020-09-01 00:00:00 15.3 9 Nordeste 13 Nordeste 0 -- -- 40
2020-08-31 23:00:00 16 10 Norte 13 Norte 0 -- -- 40
2020-08-31 22:00:00 16.5 10 Norte 13 Nordeste 0 -- -- 35
2020-08-31 21:00:00 19.5 9 Norte 14 Norte 0 -- -- 30
2020-08-31 20:00:00 24.1 5 Noroeste 19 Oeste 0 -- -- 23
2020-08-31 19:00:00 25.7 11 Oeste 22 Oeste 0 -- -- 23
2020-08-31 18:00:00 25.3 11 Oeste 28 Oeste 0 -- -- 26
2020-08-31 17:00:00 23.8 8 Oeste 27 Sudoeste 0 -- -- 24
2020-08-31 16:00:00 25.4 7 Sur 15 Noroeste 0 -- -- 24
2020-08-31 15:00:00 22.7 11 Oeste 20 Oeste 0 -- -- 26
2020-08-31 14:00:00 21.4 8 Oeste 17 Oeste 0 -- -- 30
2020-08-31 13:00:00 21 4 Sur 15 Sur 0 -- -- 34
2020-08-31 12:00:00 18 6 Este 11 Este 0 -- -- 42
2020-08-31 11:00:00 14.6 5 Nordeste 15 Nordeste 0 -- -- 55
2020-08-31 10:00:00 11.9 10 Nordeste 15 Nordeste 0 -- -- 66
2020-08-31 09:00:00 8.7 5 Nordeste 12 Noroeste 0 -- -- 75
2020-08-31 08:00:00 6 3 Norte 9 Norte 0 -- -- 84
2020-08-31 07:00:00 7 8 Norte 11 Norte 0 -- -- 81
2020-08-31 06:00:00 7.2 9 Nordeste 18 Nordeste 0 -- -- 81
2020-08-31 05:00:00 7.9 13 Nordeste 17 Nordeste 0 -- -- 82
2020-08-31 04:00:00 8.7 14 Nordeste 17 Nordeste 0 -- -- 77
2020-08-31 03:00:00 9.9 8 Nordeste 15 Nordeste 0 -- -- 73
2020-08-31 02:00:00 10.3 13 Nordeste 23 Nordeste 0 -- -- 73
2020-08-31 01:00:00 11.8 16 Nordeste 32 Este 0 -- -- 66
2020-08-31 00:00:00 13.1 19 Nordeste 32 Nordeste 0 -- -- 57
2020-08-30 23:00:00 14.2 22 Nordeste 33 Este 0 -- -- 52
2020-08-30 22:00:00 14.5 5 Norte 9 Este 0 -- -- 42
2020-08-30 21:00:00 18.1 6 Este 11 Este 0 -- -- 35
2020-08-30 20:00:00 20.7 7 Nordeste 18 Nordeste 0 -- -- 32
2020-08-30 19:00:00 21.3 4 Noroeste 31 Nordeste 0 -- -- 29
2020-08-30 18:00:00 21.9 9 Nordeste 23 Nordeste 0 -- -- 30
2020-08-30 17:00:00 21.7 14 Nordeste 22 Nordeste 0 -- -- 33
2020-08-30 16:00:00 20.2 12 Nordeste 23 Norte 0 -- -- 36
2020-08-30 15:00:00 19 9 Nordeste 18 Este 0 -- -- 40
2020-08-30 14:00:00 19.1 8 Sudeste 20 Este 0 -- -- 42
2020-08-30 13:00:00 17.3 5 Sudeste 15 Norte 0 -- -- 46
2020-08-30 12:00:00 16 4 Nordeste 12 Este 0 -- -- 50
2020-08-30 11:00:00 14.4 5 Oeste 11 Noroeste 0 -- -- 57
2020-08-30 10:00:00 12.3 5 Oeste 8 Oeste 0 -- -- 67
2020-08-30 09:00:00 8.4 4 Nordeste 12 Norte 0 -- -- 77
2020-08-30 08:00:00 5.3 8 Norte 10 Nordeste 0 -- -- 86
2020-08-30 07:00:00 5.6 8 Norte 9 Norte 0 -- -- 86
2020-08-30 06:00:00 6.6 6 Norte 10 Norte 0 -- -- 86
2020-08-30 05:00:00 6.8 8 Norte 10 Nordeste 0 -- -- 81
2020-08-30 04:00:00 7.8 4 Nordeste 9 Norte 0 -- -- 79
2020-08-30 03:00:00 9.3 3 Este 10 Este 0 -- -- 76
2020-08-30 02:00:00 9.4 5 Nordeste 9 Nordeste 0 -- -- 72
2020-08-30 01:00:00 10.2 6 Nordeste 12 Norte 0 -- -- 67
2020-08-30 00:00:00 11.5 9 Nordeste 18 Norte 0 -- -- 62
2020-08-29 23:00:00 13.3 14 Norte 26 Nordeste 0 -- -- 56
2020-08-29 22:00:00 14.8 14 Norte 37 Norte 0 -- -- 53
2020-08-29 21:00:00 16.7 24 Norte 42 Norte 0 -- -- 47
2020-08-29 20:00:00 19.3 26 Norte 41 Noroeste 0 -- -- 40
2020-08-29 19:00:00 20.7 28 Norte 42 Norte 0 -- -- 38
2020-08-29 18:00:00 21.8 19 Norte 47 Noroeste 0 -- -- 36
2020-08-29 17:00:00 21.3 27 Norte 46 Noroeste 0 -- -- 38
2020-08-29 16:00:00 20.7 24 Norte 44 Noroeste 0 -- -- 36
2020-08-29 15:00:00 21.6 22 Norte 46 Noroeste 0 -- -- 37
2020-08-29 14:00:00 20.4 17 Norte 39 Noroeste 0 -- -- 39
2020-08-29 13:00:00 19.8 18 Noroeste 35 Norte 0 -- -- 39
2020-08-29 12:00:00 18.5 18 Noroeste 30 Noroeste 0 -- -- 45
2020-08-29 11:00:00 16.4 19 Noroeste 31 Noroeste 0 -- -- 53
2020-08-29 10:00:00 13.9 18 Noroeste 26 Noroeste 0 -- -- 62
2020-08-29 09:00:00 10.9 13 Oeste 20 Noroeste 0 -- -- 72
2020-08-29 08:00:00 9.1 13 Noroeste 17 Noroeste 0 -- -- 78
2020-08-29 07:00:00 8.8 6 Norte 15 Noroeste 0 -- -- 76
2020-08-29 06:00:00 10.1 10 Noroeste 18 Noroeste 0 -- -- 71
2020-08-29 05:00:00 10.7 15 Noroeste 26 Noroeste 0 -- -- 68
2020-08-29 04:00:00 10.7 13 Noroeste 23 Noroeste 0 -- -- 71
2020-08-29 03:00:00 12.6 11 Noroeste 19 Norte 0 -- -- 64
2020-08-29 02:00:00 13.7 14 Noroeste 32 Noroeste 0 -- -- 61
2020-08-29 01:00:00 15 22 Norte 33 Noroeste 0 -- -- 57
2020-08-29 00:00:00 15.5 21 Noroeste 41 Noroeste 0 -- -- 54
2020-08-28 23:00:00 17 26 Noroeste 40 Noroeste 0 -- -- 49
2020-08-28 22:00:00 17.8 20 Noroeste 39 Noroeste 0 -- -- 40
2020-08-28 21:00:00 19.4 26 Noroeste 43 Noroeste 0 -- -- 38
2020-08-28 20:00:00 22.5 29 Noroeste 41 Noroeste 0 -- -- 34
2020-08-28 19:00:00 25.6 23 Noroeste 43 Noroeste 0 -- -- 31
2020-08-28 18:00:00 27.8 24 Oeste 37 Oeste 0 -- -- 23
2020-08-28 17:00:00 27.7 24 Oeste 39 Oeste 0 -- -- 22
2020-08-28 16:00:00 28 20 Oeste 33 Noroeste 0 -- -- 27
2020-08-28 15:00:00 26.6 15 Oeste 36 Oeste 0 -- -- 31
2020-08-28 14:00:00 25.2 14 Sudoeste 27 Sudoeste 0 -- -- 40
2020-08-28 13:00:00 23.3 14 Sudoeste 24 Sudoeste 0 -- -- 49
2020-08-28 12:00:00 21.3 10 Oeste 20 Oeste 0 -- -- 63
2020-08-28 11:00:00 21.1 8 Oeste 15 Oeste 0 -- -- 63
2020-08-28 10:00:00 20.2 10 Oeste 19 Oeste 0 -- -- 68
2020-08-28 09:00:00 17.3 8 Oeste 15 Oeste 0 -- -- 80
2020-08-28 08:00:00 15.9 6 Oeste 10 Oeste 0 -- -- 83
2020-08-28 07:00:00 16.6 5 Oeste 10 Oeste 0 -- -- 82
2020-08-28 06:00:00 17 7 Oeste 10 Oeste 0 -- -- 79
2020-08-28 05:00:00 17.2 5 Oeste 14 Noroeste 0 -- -- 77
2020-08-28 04:00:00 18 12 Noroeste 16 Noroeste 0 -- -- 74
2020-08-28 03:00:00 19.2 10 Noroeste 17 Noroeste 0 -- -- 70
2020-08-28 02:00:00 20.8 7 Noroeste 14 Noroeste 0 -- -- 64
2020-08-28 01:00:00 22.5 12 Noroeste 16 Oeste 0 -- -- 61
2020-08-28 00:00:00 22.5 11 Noroeste 21 Noroeste 0 -- -- 61
2020-08-27 23:00:00 24.3 14 Noroeste 21 Noroeste 0 -- -- 54
2020-08-27 22:00:00 25.8 14 Noroeste 24 Oeste 0 -- -- 46
2020-08-27 21:00:00 28.1 15 Oeste 25 Oeste 0 -- -- 34
2020-08-27 20:00:00 32.4 17 Oeste 31 Oeste 0 -- -- 23
2020-08-27 19:00:00 34.1 16 Oeste 44 Sudoeste 0 -- -- 23
2020-08-27 18:00:00 34.6 15 Sudoeste 30 Oeste 0 -- -- 27
2020-08-27 17:00:00 33.9 13 Sudoeste 29 Sudoeste 0 -- -- 22
2020-08-27 16:00:00 33.5 16 Sudoeste 27 Sudoeste 0 -- -- 30
2020-08-27 15:00:00 32.1 8 Sudoeste 21 Oeste 0 -- -- 35
2020-08-27 14:00:00 30.6 10 Oeste 22 Noroeste 0 -- -- 40
2020-08-27 13:00:00 28.7 7 Oeste 13 Oeste 0 -- -- 46
2020-08-27 12:00:00 26.7 8 Noroeste 24 Norte 0 -- -- 53
2020-08-27 11:00:00 24.4 15 Norte 23 Norte 0 -- -- 61
2020-08-27 10:00:00 21.1 6 Oeste 10 Oeste 0 -- -- 73
2020-08-27 09:00:00 18.4 3 Oeste 5 Sudoeste 0 -- -- 77
2020-08-27 08:00:00 15.5 3 Noroeste 13 Noroeste 0 -- -- 82
2020-08-27 07:00:00 15.8 9 Noroeste 12 Noroeste 0 -- -- 80
2020-08-27 06:00:00 17.1 6 Noroeste 9 Noroeste 0 -- -- 72
2020-08-27 05:00:00 17.9 2 Noroeste 17 Norte 0 -- -- 68
2020-08-27 04:00:00 19.9 11 Norte 14 Norte 0 -- -- 61
2020-08-27 03:00:00 20.6 8 Norte 14 Norte 0 -- -- 60
2020-08-27 02:00:00 21.7 10 Norte 19 Noroeste 0 -- -- 56
2020-08-27 01:00:00 22.1 5 Noroeste 15 Noroeste 0 -- -- 53
2020-08-27 00:00:00 22.4 9 Noroeste 15 Noroeste 0 -- -- 50
2020-08-26 23:00:00 22.9 10 Noroeste 19 Oeste 0 -- -- 42
2020-08-26 22:00:00 25.7 10 Noroeste 18 Oeste 0 -- -- 33
2020-08-26 21:00:00 29.7 8 Oeste 13 Oeste 0 -- -- 29
2020-08-26 20:00:00 34.6 4 Oeste 22 Noroeste 0 -- -- 24
2020-08-26 19:00:00 34.2 10 Oeste 22 Oeste 0 -- -- 23
2020-08-26 18:00:00 34.2 16 Sudoeste 27 Sudoeste 0 -- -- 23
2020-08-26 17:00:00 34.2 14 Oeste 26 Oeste 0 -- -- 25
2020-08-26 16:00:00 33.5 10 Oeste 21 Oeste 0 -- -- 28
2020-08-26 15:00:00 31.7 9 Noroeste 19 Oeste 0 -- -- 32
2020-08-26 14:00:00 30.5 7 Oeste 16 Oeste 0 -- -- 37
2020-08-26 13:00:00 28.5 7 Oeste 20 Noroeste 0 -- -- 42
2020-08-26 12:00:00 26 6 Nordeste 14 Noroeste 0 -- -- 45
2020-08-26 11:00:00 23.4 4 Noroeste 13 Noroeste 0 -- -- 55
2020-08-26 10:00:00 20.2 4 Norte 14 Nordeste 0 -- -- 64
2020-08-26 09:00:00 16.5 10 Nordeste 15 Nordeste 0 -- -- 77
2020-08-26 08:00:00 14 11 Nordeste 14 Norte 0 -- -- 85
2020-08-26 07:00:00 13.9 9 Norte 12 Norte 0 -- -- 84
2020-08-26 06:00:00 14.4 6 Nordeste 8 Norte 0 -- -- 81
2020-08-26 05:00:00 15.8 5 Nordeste 6 Nordeste 0 -- -- 75
2020-08-26 04:00:00 16.5 4 Norte 17 Norte 0 -- -- 72
2020-08-26 03:00:00 17 14 Norte 15 Norte 0 -- -- 68
2020-08-26 02:00:00 19 8 Nordeste 15 Norte 0 -- -- 58
2020-08-26 01:00:00 21.1 11 Noroeste 14 Noroeste 0 -- -- 50
2020-08-26 00:00:00 22.9 12 Norte 17 Noroeste 0 -- -- 46
2020-08-25 23:00:00 23.6 15 Noroeste 20 Noroeste 0 -- -- 37
2020-08-25 22:00:00 24.5 14 Noroeste 18 Noroeste 0 -- -- 27
2020-08-25 21:00:00 28.7 14 Noroeste 27 Oeste 0 -- -- 20
2020-08-25 20:00:00 32.8 15 Oeste 29 Oeste 0 -- -- 21
2020-08-25 19:00:00 34 18 Oeste 31 Oeste 0 -- -- 21
2020-08-25 18:00:00 35 15 Oeste 31 Sudoeste 0 -- -- 20
2020-08-25 17:00:00 35 11 Sudoeste 28 Sudoeste 0 -- -- 22
2020-08-25 16:00:00 34.5 8 Sudoeste 28 Sudoeste 0 -- -- 25
2020-08-25 15:00:00 32.5 13 Oeste 27 Sudoeste 0 -- -- 26
2020-08-25 14:00:00 31.6 8 Sudoeste 18 Sudoeste 0 -- -- 29
2020-08-25 13:00:00 29.5 5 Sudoeste 14 Sudoeste 0 -- -- 32
2020-08-25 12:00:00 26.4 4 Sudoeste 9 Oeste 0 -- -- 37
2020-08-25 11:00:00 23.1 5 Sur 9 Sudeste 0 -- -- 42
2020-08-25 10:00:00 20.2 4 Sudeste 8 Este 0 -- -- 50
2020-08-25 09:00:00 15.7 4 Nordeste 8 Norte 0 -- -- 67
2020-08-25 08:00:00 12.9 4 Norte 6 Norte 0 -- -- 72
2020-08-25 07:00:00 12.5 5 Norte 9 Nordeste 0 -- -- 74
2020-08-25 06:00:00 12.7 9 Nordeste 13 Norte 0 -- -- 74
2020-08-25 05:00:00 13.9 12 Nordeste 15 Nordeste 0 -- -- 69
2020-08-25 04:00:00 15.4 4 Este 10 Nordeste 0 -- -- 63
2020-08-25 03:00:00 15.3 9 Nordeste 12 Norte 0 -- -- 63
2020-08-25 02:00:00 16.9 6 Nordeste 12 Este 0 -- -- 57
2020-08-25 01:00:00 17.6 3 Este 15 Norte 0 -- -- 52
2020-08-25 00:00:00 19.7 12 Norte 17 Nordeste 0 -- -- 44
2020-08-24 23:00:00 20.8 11 Norte 14 Nordeste 0 -- -- 44
2020-08-24 22:00:00 23 9 Norte 12 Norte 0 -- -- 37
2020-08-24 21:00:00 27.1 7 Noroeste 9 Noroeste 0 -- -- 30
2020-08-24 20:00:00 30.8 7 Oeste 12 Norte 0 -- -- 26
2020-08-24 19:00:00 31.3 7 Oeste 18 Noroeste 0 -- -- 25
2020-08-24 18:00:00 31.8 6 Oeste 18 Sudoeste 0 -- -- 28
2020-08-24 17:00:00 30.9 9 Nordeste 22 Noroeste 0 -- -- 28
2020-08-24 16:00:00 30.3 10 Nordeste 18 Nordeste 0 -- -- 30
2020-08-24 15:00:00 29.1 8 Nordeste 19 Nordeste 0 -- -- 33
2020-08-24 14:00:00 28.1 6 Noroeste 22 Nordeste 0 -- -- 38
2020-08-24 13:00:00 26 9 Norte 20 Nordeste 0 -- -- 40
2020-08-24 12:00:00 23.7 10 Este 19 Este 0 -- -- 47
2020-08-24 11:00:00 20.7 13 Este 23 Nordeste 0 -- -- 56
2020-08-24 10:00:00 18.1 12 Nordeste 22 Nordeste 0 -- -- 65
2020-08-24 09:00:00 15.2 16 Nordeste 25 Nordeste 0 -- -- 75
2020-08-24 08:00:00 13.6 22 Nordeste 29 Nordeste 0 -- -- 81
2020-08-24 07:00:00 12.2 2 Este 9 Nordeste 0 -- -- 89
2020-08-24 06:00:00 13.1 5 Nordeste 13 Norte 0 -- -- 86
2020-08-24 05:00:00 14 9 Norte 11 Norte 0 -- -- 83
2020-08-24 04:00:00 15.5 5 Norte 23 Nordeste 0 -- -- 76
2020-08-24 03:00:00 16.3 15 Nordeste 27 Nordeste 0 -- -- 72
2020-08-24 02:00:00 16.9 21 Nordeste 30 Nordeste 0 -- -- 68
2020-08-24 01:00:00 18.3 21 Nordeste 31 Nordeste 0 -- -- 60
2020-08-24 00:00:00 15.9 14 Nordeste 17 Nordeste 0 -- -- 59
2020-08-23 23:00:00 18.8 12 Norte 15 Norte 0 -- -- 47
2020-08-23 22:00:00 20.6 11 Nordeste 17 Norte 0 -- -- 43
2020-08-23 21:00:00 25.4 13 Norte 18 Norte 0 -- -- 30
2020-08-23 20:00:00 29.1 9 Norte 22 Noroeste 0 -- -- 23
2020-08-23 19:00:00 30.2 13 Noroeste 21 Noroeste 0 -- -- 22
2020-08-23 18:00:00 30.9 6 Noroeste 15 Norte 0 -- -- 23
2020-08-23 17:00:00 29.9 9 Nordeste 22 Noroeste 0 -- -- 26
2020-08-23 16:00:00 28.4 11 Norte 21 Nordeste 0 -- -- 31
2020-08-23 15:00:00 28 10 Nordeste 22 Nordeste 0 -- -- 35
2020-08-23 14:00:00 26.5 7 Nordeste 21 Nordeste 0 -- -- 38
2020-08-23 13:00:00 24.6 11 Nordeste 22 Nordeste 0 -- -- 44
2020-08-23 12:00:00 22.7 9 Nordeste 18 Nordeste 0 -- -- 55
2020-08-23 11:00:00 20 12 Nordeste 21 Nordeste 0 -- -- 66
2020-08-23 10:00:00 17.3 10 Nordeste 18 Nordeste 0 -- -- 76
2020-08-23 09:00:00 15.1 5 Nordeste 12 Norte 0 -- -- 84
2020-08-23 08:00:00 12 3 Nordeste 8 Norte 0 -- -- 93
2020-08-23 07:00:00 12.2 4 Norte 18 Nordeste 0 -- -- 92
2020-08-23 06:00:00 12.3 9 Nordeste 16 Nordeste 0 -- -- 93
2020-08-23 05:00:00 12.7 9 Nordeste 21 Nordeste 0 -- -- 91
2020-08-23 04:00:00 14.2 19 Nordeste 23 Nordeste 0 -- -- 87
2020-08-23 03:00:00 12.5 11 Nordeste 16 Norte 0 -- -- 81
2020-08-23 02:00:00 13.7 7 Noroeste 13 Norte 0 -- -- 70
2020-08-23 01:00:00 15.7 3 Oeste 18 Norte 0 -- -- 57
2020-08-23 00:00:00 15.8 13 Norte 16 Norte 0 -- -- 59
2020-08-22 23:00:00 16.3 11 Norte 15 Norte 0 -- -- 60
2020-08-22 22:00:00 19 11 Norte 13 Norte 0 -- -- 48
2020-08-22 21:00:00 25 6 Nordeste 15 Norte 0 -- -- 30
2020-08-22 20:00:00 27.5 11 Norte 16 Norte 0 -- -- 24
2020-08-22 19:00:00 28.7 6 Sur 16 Sudoeste 0 -- -- 26
2020-08-22 18:00:00 28.4 9 Oeste 23 Oeste 0 -- -- 27
2020-08-22 17:00:00 28.5 12 Oeste 21 Oeste 0 -- -- 28
2020-08-22 16:00:00 27.4 7 Oeste 21 Noroeste 0 -- -- 32
2020-08-22 15:00:00 25.3 6 Oeste 14 Oeste 0 -- -- 36
2020-08-22 14:00:00 24.2 8 Oeste 18 Oeste 0 -- -- 43
2020-08-22 13:00:00 22.4 9 Oeste 21 Noroeste 0 -- -- 50
2020-08-22 12:00:00 20.4 8 Norte 15 Noroeste 0 -- -- 57
2020-08-22 11:00:00 18.9 9 Noroeste 15 Noroeste 0 -- -- 62
2020-08-22 10:00:00 16 5 Oeste 8 Oeste 0 -- -- 82
2020-08-22 09:00:00 14.7 0 Calma 9 Nordeste 0 -- -- 83
2020-08-22 08:00:00 10.6 7 Nordeste 9 Nordeste 0 -- -- 95
2020-08-22 07:00:00 11 4 Norte 8 Noroeste 0 -- -- 94
2020-08-22 06:00:00 11.9 5 Noroeste 9 Noroeste 0 -- -- 93
2020-08-22 05:00:00 12.4 8 Noroeste 9 Noroeste 0 -- -- 92
2020-08-22 04:00:00 13.2 3 Oeste 5 Oeste 0 -- -- 90
2020-08-22 03:00:00 13.8 3 Sudoeste 9 Noroeste 0 -- -- 86
2020-08-22 02:00:00 14.4 7 Noroeste 12 Noroeste 0 -- -- 82
2020-08-22 01:00:00 15.6 9 Oeste 17 Oeste 0 -- -- 76
2020-08-22 00:00:00 16.4 8 Oeste 18 Noroeste 0 -- -- 70
2020-08-21 23:00:00 17.5 11 Oeste 19 Noroeste 0 -- -- 68
2020-08-21 22:00:00 18.4 13 Oeste 18 Oeste 0 -- -- 63
2020-08-21 21:00:00 21.4 11 Oeste 31 Oeste 0 -- -- 51
2020-08-21 20:00:00 24.3 20 Oeste 34 Oeste 0 -- -- 35
2020-08-21 19:00:00 25.7 21 Oeste 40 Sudoeste 0 -- -- 41
2020-08-21 18:00:00 26.2 27 Sudoeste 40 Sudoeste 0 -- -- 50
2020-08-21 17:00:00 24.7 25 Sudoeste 34 Sudoeste 0 -- -- 59
2020-08-21 16:00:00 23.6 20 Sudoeste 30 Oeste 0 -- -- 65
2020-08-21 15:00:00 21.4 15 Oeste 24 Oeste 0 -- -- 76
2020-08-21 14:00:00 21.9 14 Oeste 23 Oeste 0 -- -- 76
2020-08-21 13:00:00 20.4 13 Oeste 20 Oeste 0 -- -- 87
2020-08-21 12:00:00 21.8 10 Sudoeste 17 Sudoeste 0 -- -- 79
2020-08-21 11:00:00 19.2 5 Oeste 13 Oeste 0 -- -- 88
2020-08-21 10:00:00 19.3 5 Oeste 10 Oeste 0 -- -- 90
2020-08-21 09:00:00 18 9 Oeste 12 Oeste 0 -- -- 93
2020-08-21 08:00:00 17.6 4 Oeste 10 Oeste 0 -- -- 96
2020-08-21 07:00:00 17.7 7 Oeste 9 Oeste 0.2 -- -- 97
2020-08-21 06:00:00 17.7 3 Oeste 14 Oeste 0.6 -- -- 97
2020-08-21 05:00:00 17.8 8 Sudoeste 11 Sudoeste 0.2 -- -- 96
2020-08-21 04:00:00 17.9 6 Sur 9 Sur 0 -- -- 96
2020-08-21 03:00:00 17.7 5 Sur 8 Sur 0 -- -- 97
2020-08-21 02:00:00 17.2 4 Sur 8 Sudoeste 0 -- -- 96
2020-08-21 01:00:00 17.2 6 Oeste 28 Oeste 1.6 -- -- 96
2020-08-21 00:00:00 16.9 20 Oeste 33 Oeste 4 -- -- 94